Aérodrome :
LOGIN :

S'inscrire | Disclaimer

   EN    FR    IT 

 










Légende :    VFR   VFR Marginal   IFR   IFR Intensif   IFR Très Intensif
Visi : 
Plafond : 
>= 8 km
>= 3000ft
5 à 8 km
1000 à 3000 ft
1500m à 5 km
500 à 1000 ft
800 à 1500m
200 à 500 ft
< 800m
< 200 ft
Symboles :   Orages  Brouillard  Fortes neiges  Fortes précipitations  Vent > 20 kt
SIGMETs :   Divers  Orages  Givrage  Turbulence  Onde Orograph.  Cendres Volcan.






- Altitude de l'aérodrome : 587 ft
- Code IATA : XCR


LFOK - Chalons Vatry

DERNIER METAR :
  • 291200Z AUTO 18012KT 9999 4500 OVC017 10/07 Q1011 TEMPO 4000 RADZ BKN013

METARs EXPIRÉS :
  • 291130Z AUTO 19013KT 9999 3200 OVC018 10/07 Q1011 TEMPO 4000 RADZ BKN013
  • 291100Z AUTO 19014KT 9999 4200 BKN020 OVC025 09/06 Q1012 TEMPO 4000 RADZ BKN013
  • 291030Z AUTO 18015KT 9999 2500 OVC020 08/05 Q1012 TEMPO 4000 RADZ BKN013
  • 291000Z AUTO 17013KT 9999 2000 OVC020 07/05 Q1013 TEMPO 3000 RADZ BKN007
  • 290930Z AUTO 17013KT 9999 OVC021 06/05 Q1013 TEMPO 3000 RADZ BKN007
  • 290900Z AUTO 17013KT 9999 OVC023 05/04 Q1014 TEMPO 3000 RADZ BKN007
  • 290830Z AUTO 17011KT 9999 OVC019 05/04 Q1014 TEMPO 3000 RADZ BKN007
  • 290800Z AUTO 17013KT 9999 BKN020 OVC078 04/03 Q1014 TEMPO 3000 RADZ BKN007

TAF TAF LFOK
Valide du 29 à 12h jusqu'au 01 à 12h UTC


291100Z 2912/0112 19014KT 9999 BKN030
TEMPO 2912/2922 4000 RADZ BKN013
BECMG 2922/0101 30010KT 3000 RADZ BKN006 OVC012
BECMG 0101/0104 20010KT 9999 NSW SCT020
PROB40
TEMPO 0104/0110 BKN005



MET'MAP, la Météo Aéronautique d'un coup d'oeil ! - Copyright ORBIFLY Décembre 2007 - Disclaimer

ORBIFLY MET'MAP TEAM :

Programmation & Développement : Alexandra Zaïnal
Sur une idée originale de : Baudouin d'Aumeries
Soutien technique & logistique : Manuel Goepfert
Assistance : Marc-Olivier Méhu




SOURCES & CREDITS :

   NOAA